Time;durP1;ratioP1;P1;durP2;ratioP2;P2;SDS_P1;SDS_P2;PMS_P1;PMS_P2;Temp;Humidity;BMP_temperature;BMP_pressure;BME280_temperature;BME280_humidity;BME280_pressure;Samples;Min_cycle;Max_cycle;Signal;HPM_P1;HPM_P2
2021/12/23 00:02:05;;;;;;;5.32;2.97;;;;;;;-8.55;100.00;99523.41;5153569;27;20055;-63
2021/12/23 00:04:31;;;;;;;8.23;4.15;;;;;;;-8.51;100.00;99528.28;5153316;27;20053;-63
2021/12/23 00:06:58;;;;;;;17.35;6.85;;;;;;;-8.50;100.00;99517.41;5153420;27;20058;-63
2021/12/23 00:09:33;;;;;;;16.35;6.88;;;;;;;-8.51;100.00;99522.94;5153622;27;20046;-63
2021/12/23 00:11:59;;;;;;;22.00;9.23;;;;;;;-8.56;100.00;99515.69;5153661;27;20047;-63
2021/12/23 00:14:26;;;;;;;10.10;4.53;;;;;;;-8.56;100.00;99518.34;5153855;27;20051;-63
2021/12/23 00:17:07;;;;;;;9.98;4.32;;;;;;;-8.50;100.00;99520.06;5153271;27;20096;-63
2021/12/23 00:19:37;;;;;;;10.18;4.57;;;;;;;-8.50;100.00;99535.19;5152629;27;20501;-63
2021/12/23 00:24:49;;;;;;;8.35;4.28;;;;;;;-8.44;100.00;99551.03;5152772;27;20149;-63
2021/12/23 00:27:15;;;;;;;11.38;4.43;;;;;;;-8.45;100.00;99559.25;5153213;27;20056;-63
2021/12/23 00:29:42;;;;;;;10.45;5.22;;;;;;;-8.50;100.00;99564.44;5152913;27;20095;-63
2021/12/23 00:32:09;;;;;;;11.60;5.03;;;;;;;-8.55;100.00;99581.09;5152986;27;20102;-63
2021/12/23 00:34:36;;;;;;;10.77;5.32;;;;;;;-8.53;100.00;99592.28;5152783;27;20082;-64
2021/12/23 00:37:04;;;;;;;11.18;5.47;;;;;;;-8.63;100.00;99608.84;5153333;27;20043;-63
2021/12/23 00:39:31;;;;;;;7.78;4.22;;;;;;;-8.67;100.00;99617.47;5152781;27;20076;-63
2021/12/23 00:42:05;;;;;;;9.45;5.38;;;;;;;-8.70;100.00;99625.91;5152937;27;20576;-63
2021/12/23 00:44:32;;;;;;;13.45;4.57;;;;;;;-8.65;100.00;99636.66;5153336;27;20051;-63
2021/12/23 00:46:59;;;;;;;9.85;4.88;;;;;;;-8.61;100.00;99646.59;5153064;27;20477;-63
2021/12/23 00:49:25;;;;;;;8.88;5.15;;;;;;;-8.62;100.00;99641.53;5153121;27;20402;-63
2021/12/23 00:51:53;;;;;;;15.20;5.95;;;;;;;-8.56;100.00;99648.59;5153084;27;20495;-63
2021/12/23 00:54:20;;;;;;;9.55;5.50;;;;;;;-8.51;100.00;99648.72;5152986;27;20046;-63
2021/12/23 00:56:49;;;;;;;11.93;5.68;;;;;;;-8.49;100.00;99645.84;5152746;27;20047;-63
2021/12/23 00:59:15;;;;;;;12.57;5.75;;;;;;;-8.48;100.00;99650.91;5152642;27;20429;-63
2021/12/23 01:01:41;;;;;;;11.82;5.63;;;;;;;-8.48;100.00;99642.94;5152505;27;20057;-63
2021/12/23 01:04:09;;;;;;;9.73;5.30;;;;;;;-8.58;100.00;99616.91;5152675;27;20505;-63
2021/12/23 01:06:35;;;;;;;12.70;7.15;;;;;;;-8.64;100.00;99593.91;5152492;27;20138;-62
2021/12/23 01:09:01;;;;;;;15.38;7.28;;;;;;;-8.57;100.00;99591.94;5152833;27;20064;-62
2021/12/23 01:11:28;;;;;;;14.65;7.63;;;;;;;-8.60;100.00;99589.75;5152759;27;20361;-63
2021/12/23 01:14:02;;;;;;;21.85;8.52;;;;;;;-8.56;100.00;99582.16;5152548;27;20058;-62
2021/12/23 01:16:48;;;;;;;20.77;9.40;;;;;;;-8.55;100.00;99573.94;5152376;27;20520;-63
2021/12/23 01:19:15;;;;;;;15.90;8.02;;;;;;;-8.63;100.00;99553.00;5152190;27;20055;-62
2021/12/23 01:21:42;;;;;;;21.88;9.57;;;;;;;-8.58;100.00;99544.34;5152278;27;20050;-63
2021/12/23 01:24:09;;;;;;;17.10;8.18;;;;;;;-8.53;100.00;99552.41;5151618;27;20047;-63
2021/12/23 01:26:35;;;;;;;15.55;6.70;;;;;;;-8.59;100.00;99535.56;5152078;27;20046;-63
2021/12/23 01:29:02;;;;;;;16.48;7.28;;;;;;;-8.50;100.00;99525.38;5151992;27;20141;-62
2021/12/23 01:31:30;;;;;;;16.83;7.65;;;;;;;-8.59;100.00;99490.38;5150954;27;20501;-63
2021/12/23 01:33:58;;;;;;;15.25;6.93;;;;;;;-8.60;100.00;99479.94;5152258;27;20089;-63
2021/12/23 01:36:26;;;;;;;13.15;6.78;;;;;;;-8.69;100.00;99466.22;5151777;27;20053;-63
2021/12/23 01:38:53;;;;;;;15.32;6.60;;;;;;;-8.80;100.00;99462.50;5152176;27;20105;-62
2021/12/23 01:41:21;;;;;;;16.80;7.97;;;;;;;-8.89;100.00;99468.41;5151727;27;20103;-63
2021/12/23 01:43:48;;;;;;;13.50;6.90;;;;;;;-8.90;100.00;99475.56;5152135;27;20528;-63
2021/12/23 01:46:14;;;;;;;15.00;7.30;;;;;;;-9.01;100.00;99468.38;5151757;27;20050;-63
2021/12/23 01:48:41;;;;;;;15.32;8.18;;;;;;;-9.02;100.00;99461.47;5151896;27;20159;-62
2021/12/23 01:51:07;;;;;;;15.90;7.25;;;;;;;-9.08;100.00;99449.09;5151522;27;20050;-63
2021/12/23 01:53:34;;;;;;;15.70;7.43;;;;;;;-9.15;100.00;99438.59;5151740;27;20147;-62
2021/12/23 01:56:01;;;;;;;15.48;7.65;;;;;;;-9.18;100.00;99441.69;5151443;27;20050;-63
2021/12/23 01:58:27;;;;;;;19.80;7.50;;;;;;;-9.22;100.00;99442.41;5151810;27;20050;-63
2021/12/23 02:00:54;;;;;;;12.15;7.28;;;;;;;-9.36;100.00;99431.16;5151731;27;20467;-62
2021/12/23 02:03:21;;;;;;;15.48;7.90;;;;;;;-9.53;100.00;99428.34;5151433;27;20099;-63
2021/12/23 02:05:47;;;;;;;15.52;7.53;;;;;;;-9.58;100.00;99429.03;5151624;27;20050;-64
2021/12/23 02:08:14;;;;;;;12.50;7.85;;;;;;;-9.76;100.00;99439.72;5151317;27;20046;-63
2021/12/23 02:10:42;;;;;;;30.88;8.27;;;;;;;-9.84;100.00;99461.25;5151485;27;20478;-63
2021/12/23 02:13:08;;;;;;;18.40;7.72;;;;;;;-9.86;100.00;99481.88;5151481;27;20104;-63
2021/12/23 02:15:35;;;;;;;21.52;7.65;;;;;;;-9.83;100.00;99503.47;5151651;27;20462;-63
2021/12/23 02:18:01;;;;;;;17.10;8.82;;;;;;;-9.82;100.00;99525.50;5151481;27;20053;-63
2021/12/23 02:20:32;;;;;;;25.65;10.68;;;;;;;-9.82;100.00;99541.44;5151471;27;20077;-63
2021/12/23 02:22:58;;;;;;;21.73;8.23;;;;;;;-9.85;100.00;99563.09;5151236;27;20056;-63
2021/12/23 02:25:25;;;;;;;15.20;8.05;;;;;;;-9.82;100.00;99581.22;5150680;27;20102;-62
2021/12/23 02:27:54;;;;;;;15.20;7.65;;;;;;;-9.75;100.00;99601.34;5151296;27;20047;-63
2021/12/23 02:30:23;;;;;;;12.70;6.68;;;;;;;-9.84;100.00;99610.63;5151390;27;20049;-63
2021/12/23 02:32:51;;;;;;;18.42;8.00;;;;;;;-9.76;100.00;99628.09;5151517;27;20046;-63
2021/12/23 02:35:19;;;;;;;16.02;8.50;;;;;;;-9.75;100.00;99633.16;5151084;27;20055;-63
2021/12/23 02:37:47;;;;;;;14.43;8.35;;;;;;;-9.83;100.00;99643.25;5151154;27;20404;-63
2021/12/23 02:40:24;;;;;;;20.15;8.35;;;;;;;-9.91;100.00;99638.25;5151146;27;20078;-63
2021/12/23 02:42:51;;;;;;;20.33;8.55;;;;;;;-9.94;100.00;99652.75;5153509;27;20098;-63
2021/12/23 02:45:17;;;;;;;16.45;8.48;;;;;;;-9.90;100.00;99677.81;5154737;27;20054;-63
2021/12/23 02:47:44;;;;;;;17.80;8.35;;;;;;;-9.87;100.00;99693.28;5154924;27;20046;-63
2021/12/23 02:50:10;;;;;;;16.92;9.20;;;;;;;-9.82;100.00;99697.97;5154840;27;20390;-62
2021/12/23 02:52:37;;;;;;;20.00;8.38;;;;;;;-9.95;100.00;99698.88;5155199;27;20111;-63
2021/12/23 02:55:06;;;;;;;21.83;8.40;;;;;;;-9.96;100.00;99708.69;5154864;27;20047;-63
2021/12/23 02:57:32;;;;;;;16.52;8.85;;;;;;;-10.00;100.00;99723.38;5154951;27;20051;-63
2021/12/23 02:59:59;;;;;;;19.27;9.57;;;;;;;-9.96;100.00;99740.50;5155023;27;20042;-63
2021/12/23 03:02:26;;;;;;;15.68;7.82;;;;;;;-9.97;100.00;99753.97;5154586;27;20047;-63
2021/12/23 03:04:52;;;;;;;20.95;10.00;;;;;;;-10.01;100.00;99747.50;5155008;27;20085;-63
2021/12/23 03:07:18;;;;;;;22.00;9.73;;;;;;;-10.00;100.00;99760.53;5154678;27;20052;-63
2021/12/23 03:09:45;;;;;;;20.10;8.88;;;;;;;-10.07;100.00;99766.91;5154599;27;20083;-63
2021/12/23 03:12:12;;;;;;;20.33;9.25;;;;;;;-10.09;100.00;99764.50;5154167;27;20133;-63
2021/12/23 03:14:38;;;;;;;18.95;9.48;;;;;;;-10.06;100.00;99781.78;5154163;27;20051;-63
2021/12/23 03:17:05;;;;;;;22.38;9.50;;;;;;;-10.13;100.00;99778.38;5154214;27;20193;-63
2021/12/23 03:19:31;;;;;;;23.08;10.50;;;;;;;-10.30;100.00;99773.63;5154199;27;20106;-62
2021/12/23 03:21:58;;;;;;;20.70;9.52;;;;;;;-10.42;100.00;99764.75;5153988;27;20049;-63
2021/12/23 03:24:24;;;;;;;24.05;10.60;;;;;;;-10.48;100.00;99769.03;5153610;27;20462;-63
2021/12/23 03:26:51;;;;;;;23.13;9.48;;;;;;;-10.55;100.00;99778.88;5154259;27;20086;-63
2021/12/23 03:29:18;;;;;;;19.77;9.48;;;;;;;-10.51;100.00;99808.41;5153955;27;20061;-63
2021/12/23 03:31:44;;;;;;;19.98;9.25;;;;;;;-10.52;100.00;99818.19;5154181;27;20133;-63
2021/12/23 03:34:10;;;;;;;20.73;10.65;;;;;;;-10.58;100.00;99818.25;5153900;27;20062;-63
2021/12/23 03:36:37;;;;;;;21.52;9.25;;;;;;;-10.60;100.00;99828.22;5154161;27;20054;-63
2021/12/23 03:39:04;;;;;;;19.95;9.63;;;;;;;-10.71;100.00;99838.44;5153920;27;20115;-63
2021/12/23 03:41:30;;;;;;;21.60;9.77;;;;;;;-10.80;100.00;99837.06;5153968;27;20432;-63
2021/12/23 03:43:57;;;;;;;26.83;10.35;;;;;;;-10.81;100.00;99835.44;5153801;27;20073;-63
2021/12/23 03:46:24;;;;;;;19.48;8.77;;;;;;;-10.87;100.00;99848.69;5153818;27;20425;-63
2021/12/23 03:48:50;;;;;;;21.85;8.57;;;;;;;-10.96;100.00;99856.03;5153970;27;20421;-63
2021/12/23 03:51:17;;;;;;;18.65;8.82;;;;;;;-10.98;100.00;99871.34;5153913;27;20513;-63
2021/12/23 03:53:43;;;;;;;20.27;9.18;;;;;;;-10.99;100.00;99888.25;5152764;27;20098;-62
2021/12/23 03:56:10;;;;;;;18.95;8.68;;;;;;;-10.93;100.00;99906.78;5153503;27;20073;-63
2021/12/23 03:58:37;;;;;;;22.70;9.65;;;;;;;-10.93;100.00;99919.19;5153984;27;20131;-63
2021/12/23 04:01:04;;;;;;;20.85;8.80;;;;;;;-10.98;100.00;99922.47;5153464;27;20053;-62
2021/12/23 04:03:31;;;;;;;21.02;9.13;;;;;;;-11.02;100.00;99928.41;5153869;27;20043;-62
2021/12/23 04:05:58;;;;;;;21.73;10.52;;;;;;;-11.08;100.00;99935.31;5153327;27;20428;-63
2021/12/23 04:08:24;;;;;;;20.80;9.32;;;;;;;-11.09;100.00;99924.91;5153587;27;20548;-63
2021/12/23 04:10:50;;;;;;;18.95;9.20;;;;;;;-11.18;100.00;99925.13;5153246;27;20050;-63
2021/12/23 04:13:16;;;;;;;20.05;9.65;;;;;;;-11.19;100.00;99935.94;5153298;27;20057;-62
2021/12/23 04:15:43;;;;;;;23.50;9.32;;;;;;;-11.24;100.00;99930.44;5153097;27;20051;-62
2021/12/23 04:18:09;;;;;;;15.82;8.63;;;;;;;-11.34;100.00;99933.47;5153439;27;20550;-62
2021/12/23 04:20:46;;;;;;;16.98;8.63;;;;;;;-11.39;100.00;99934.09;5153391;27;20412;-63
2021/12/23 04:23:12;;;;;;;24.83;9.95;;;;;;;-11.39;100.00;99936.75;5153239;27;20532;-63
2021/12/23 04:25:39;;;;;;;18.15;8.90;;;;;;;-11.37;100.00;99940.00;5152942;27;20461;-62
2021/12/23 04:28:06;;;;;;;20.42;9.05;;;;;;;-11.42;100.00;99926.56;5153023;27;20047;-62
2021/12/23 04:30:33;;;;;;;19.30;8.80;;;;;;;-11.52;100.00;99926.16;5153270;27;20138;-62
2021/12/23 04:32:59;;;;;;;23.52;9.75;;;;;;;-11.54;100.00;99916.78;5153073;27;20046;-62
2021/12/23 04:35:25;;;;;;;19.63;8.95;;;;;;;-11.63;100.00;99917.00;5152736;27;20049;-62
2021/12/23 04:37:52;;;;;;;20.88;9.32;;;;;;;-11.69;100.00;99917.78;5152813;27;20050;-62
2021/12/23 04:40:18;;;;;;;22.42;9.27;;;;;;;-11.71;100.00;99919.81;5152785;27;20053;-63
2021/12/23 04:42:45;;;;;;;32.55;11.07;;;;;;;-11.79;100.00;99909.44;5152808;27;20489;-62
2021/12/23 04:45:12;;;;;;;23.30;10.50;;;;;;;-11.82;100.00;99914.31;5152630;27;20424;-63
2021/12/23 04:47:39;;;;;;;27.58;10.15;;;;;;;-11.84;100.00;99909.25;5152934;27;20055;-62
2021/12/23 04:50:08;;;;;;;25.88;10.63;;;;;;;-11.83;100.00;99910.03;5152666;27;20047;-62
2021/12/23 04:52:34;;;;;;;20.40;9.23;;;;;;;-11.88;100.00;99903.53;5152676;27;20489;-62
2021/12/23 04:55:01;;;;;;;22.88;9.32;;;;;;;-11.89;100.00;99907.22;5152225;27;20055;-62
2021/12/23 04:57:28;;;;;;;21.92;9.60;;;;;;;-11.90;100.00;99902.09;5152278;27;20047;-66
2021/12/23 04:59:54;;;;;;;21.80;10.68;;;;;;;-11.83;100.00;99896.81;5152111;27;20050;-60
2021/12/23 05:02:20;;;;;;;20.15;9.80;;;;;;;-11.81;100.00;99910.66;5152383;27;20063;-61
2021/12/23 05:04:50;;;;;;;23.27;9.57;;;;;;;-11.70;100.00;99912.69;5152154;27;20065;-61
2021/12/23 05:07:17;;;;;;;21.50;9.10;;;;;;;-11.48;100.00;99916.78;5152218;27;20078;-60
2021/12/23 05:09:43;;;;;;;17.10;9.50;;;;;;;-11.29;100.00;99932.88;5151725;27;20107;-60
2021/12/23 05:12:10;;;;;;;22.90;9.93;;;;;;;-11.20;100.00;99939.59;5152177;27;20075;-61
2021/12/23 05:14:37;;;;;;;16.65;8.82;;;;;;;-11.11;100.00;99929.63;5148023;27;20054;-62
2021/12/23 05:17:03;;;;;;;29.88;11.18;;;;;;;-11.11;100.00;99922.47;5152136;27;20524;-61
2021/12/23 05:19:30;;;;;;;23.33;9.27;;;;;;;-11.09;100.00;99890.50;5152476;27;20125;-61
2021/12/23 05:21:56;;;;;;;25.33;10.18;;;;;;;-10.97;100.00;99886.19;5151815;27;20047;-62
2021/12/23 05:24:22;;;;;;;19.25;8.70;;;;;;;-10.63;100.00;99890.38;5151740;27;20051;-63
2021/12/23 05:26:48;;;;;;;23.15;9.55;;;;;;;-10.61;100.00;99876.94;5151824;27;20046;-62
2021/12/23 05:29:16;;;;;;;314.05;46.13;;;;;;;-10.40;100.00;99866.03;5151984;27;20053;-61
2021/12/23 05:31:42;;;;;;;34.38;13.30;;;;;;;-10.16;100.00;99872.44;5151682;27;20043;-62
2021/12/23 05:34:08;;;;;;;24.75;10.95;;;;;;;-10.00;100.00;99848.06;5151856;27;20046;-62
2021/12/23 05:36:35;;;;;;;24.88;10.93;;;;;;;-9.85;100.00;99831.03;5151547;27;20046;-62
2021/12/23 05:39:01;;;;;;;20.45;10.80;;;;;;;-9.81;100.00;99792.44;5151597;27;20062;-62
2021/12/23 05:41:27;;;;;;;24.77;10.68;;;;;;;-9.73;100.00;99765.59;5151770;27;20050;-63
2021/12/23 05:43:54;;;;;;;21.77;11.25;;;;;;;-9.55;100.00;99751.59;5151410;27;20050;-62
2021/12/23 05:46:21;;;;;;;25.80;11.25;;;;;;;-9.65;100.00;99724.75;5151608;27;20054;-62
2021/12/23 05:48:47;;;;;;;22.60;11.23;;;;;;;-9.86;100.00;99670.22;5150835;27;20421;-62
2021/12/23 05:51:13;;;;;;;29.42;11.55;;;;;;;-10.15;100.00;99611.56;5151122;27;20138;-61
2021/12/23 05:53:40;;;;;;;78.22;20.23;;;;;;;-10.21;100.00;99597.31;5151492;27;20050;-61
2021/12/23 05:56:06;;;;;;;62.72;16.48;;;;;;;-10.30;100.00;99574.78;5151066;27;20058;-61
2021/12/23 05:58:33;;;;;;;38.88;13.13;;;;;;;-10.27;100.00;99573.56;5151112;27;20053;-62
2021/12/23 06:01:00;;;;;;;27.52;11.80;;;;;;;-10.27;100.00;99568.25;5151094;27;20103;-62
2021/12/23 06:03:27;;;;;;;25.10;12.45;;;;;;;-10.13;100.00;99582.16;5151272;27;20111;-61
2021/12/23 06:05:53;;;;;;;21.20;10.88;;;;;;;-10.10;100.00;99598.44;5151198;27;20054;-62
2021/12/23 06:08:19;;;;;;;22.65;10.32;;;;;;;-10.19;100.00;99586.50;5151321;27;20501;-62
2021/12/23 06:10:46;;;;;;;20.80;9.98;;;;;;;-10.32;100.00;99568.13;5151227;27;20524;-61
2021/12/23 06:13:12;;;;;;;23.50;10.65;;;;;;;-10.38;100.00;99559.19;5151170;27;20497;-62
2021/12/23 06:15:38;;;;;;;24.25;11.40;;;;;;;-10.45;100.00;99534.59;5151134;27;20133;-63
2021/12/23 06:18:05;;;;;;;21.10;9.65;;;;;;;-10.54;100.00;99522.66;5150966;27;20050;-63
2021/12/23 06:20:32;;;;;;;23.63;10.27;;;;;;;-10.67;100.00;99497.06;5151080;27;20509;-63
2021/12/23 06:22:58;;;;;;;25.40;11.00;;;;;;;-10.74;100.00;99488.38;5151701;27;20161;-63
2021/12/23 06:25:24;;;;;;;24.83;10.35;;;;;;;-10.80;100.00;99484.75;5150772;27;20102;-63
2021/12/23 06:27:51;;;;;;;25.35;10.95;;;;;;;-10.84;100.00;99490.72;5151208;27;20053;-63
2021/12/23 06:30:19;;;;;;;26.23;11.40;;;;;;;-10.94;100.00;99484.06;5150845;27;20046;-63
2021/12/23 06:32:46;;;;;;;32.22;13.52;;;;;;;-10.90;100.00;99509.09;5150913;27;20050;-63
2021/12/23 06:35:13;;;;;;;26.10;11.18;;;;;;;-10.83;100.00;99537.38;5150924;27;20386;-64
2021/12/23 06:37:41;;;;;;;33.35;13.68;;;;;;;-10.77;100.00;99560.34;5150912;27;20479;-64
2021/12/23 06:40:08;;;;;;;22.05;9.73;;;;;;;-10.63;100.00;99580.38;5151107;27;20055;-63
2021/12/23 06:42:34;;;;;;;25.95;11.18;;;;;;;-10.60;100.00;99584.44;5151013;27;20636;-64
2021/12/23 06:45:01;;;;;;;18.08;8.90;;;;;;;-10.52;100.00;99584.19;5151346;27;20050;-64
2021/12/23 06:47:27;;;;;;;23.77;9.90;;;;;;;-10.43;100.00;99582.88;5150458;27;20050;-63
2021/12/23 06:49:53;;;;;;;19.55;9.68;;;;;;;-10.38;100.00;99579.59;5150301;27;20416;-63
2021/12/23 06:52:20;;;;;;;27.85;10.18;;;;;;;-10.27;100.00;99565.59;5150413;27;20050;-63
2021/12/23 06:54:49;;;;;;;26.05;11.15;;;;;;;-10.05;100.00;99577.38;5150583;27;20130;-63
2021/12/23 06:57:15;;;;;;;21.55;9.35;;;;;;;-9.97;100.00;99571.78;5150825;27;20050;-63
2021/12/23 06:59:41;;;;;;;20.80;9.52;;;;;;;-9.91;100.00;99540.91;5150614;27;20259;-62
2021/12/23 07:02:08;;;;;;;20.90;9.63;;;;;;;-9.95;100.00;99527.28;5150577;27;20474;-63
2021/12/23 07:04:35;;;;;;;24.42;10.10;;;;;;;-9.83;100.00;99506.13;5150661;27;20520;-61
2021/12/23 07:07:09;;;;;;;21.90;10.38;;;;;;;-9.71;100.00;99499.03;5150770;27;20111;-61
2021/12/23 07:09:36;;;;;;;23.85;11.15;;;;;;;-9.65;100.00;99488.56;5150328;27;20046;-62
2021/12/23 07:12:03;;;;;;;23.13;10.07;;;;;;;-9.58;100.00;99474.16;5150666;27;20096;-61
2021/12/23 07:14:30;;;;;;;19.75;9.45;;;;;;;-9.58;100.00;99454.78;5150348;27;20057;-61
2021/12/23 07:16:56;;;;;;;21.17;9.88;;;;;;;-9.58;100.00;99433.53;5150573;27;20174;-61
2021/12/23 07:19:22;;;;;;;22.50;9.63;;;;;;;-9.48;100.00;99437.25;5150614;27;20042;-62
2021/12/23 07:21:49;;;;;;;23.88;10.15;;;;;;;-9.39;100.00;99426.31;5150362;27;20046;-61
2021/12/23 07:24:15;;;;;;;29.90;10.27;;;;;;;-9.34;100.00;99418.47;5150015;27;20103;-60
2021/12/23 07:26:41;;;;;;;23.40;9.80;;;;;;;-9.27;100.00;99412.00;5150270;27;20050;-60
2021/12/23 07:29:08;;;;;;;21.27;9.55;;;;;;;-9.26;100.00;99405.69;5151584;27;20046;-61
2021/12/23 07:31:35;;;;;;;26.40;10.98;;;;;;;-9.21;100.00;99390.88;5154047;27;20058;-61
2021/12/23 07:34:01;;;;;;;29.50;10.88;;;;;;;-9.11;100.00;99391.94;5153966;27;20054;-61
2021/12/23 07:36:27;;;;;;;26.25;10.98;;;;;;;-9.11;100.00;99397.25;5153668;27;20064;-61
2021/12/23 07:38:54;;;;;;;21.85;11.15;;;;;;;-9.07;100.00;99403.69;5154125;27;20082;-61
2021/12/23 07:41:21;;;;;;;19.25;10.77;;;;;;;-9.05;100.00;99393.66;5153656;27;20046;-60
2021/12/23 07:43:58;;;;;;;24.88;11.85;;;;;;;-9.05;100.00;99400.84;5153621;27;20054;-62
2021/12/23 07:46:27;;;;;;;24.20;11.35;;;;;;;-9.09;100.00;99384.56;5153348;27;20156;-61
2021/12/23 07:48:54;;;;;;;27.73;14.13;;;;;;;-8.98;100.00;99393.56;5153458;27;20074;-61
2021/12/23 07:51:20;;;;;;;28.17;13.70;;;;;;;-8.99;100.00;99396.44;5153715;27;20082;-60
2021/12/23 07:53:47;;;;;;;35.53;16.63;;;;;;;-8.98;100.00;99395.41;5153475;27;20302;-61
2021/12/23 07:56:13;;;;;;;46.88;17.98;;;;;;;-8.98;100.00;99379.47;5153348;27;20043;-61
2021/12/23 07:58:39;;;;;;;52.00;22.85;;;;;;;-8.94;100.00;99394.69;5153100;27;20054;-62
2021/12/23 08:01:05;;;;;;;50.05;22.52;;;;;;;-8.77;100.00;99405.44;5153229;27;20050;-62
2021/12/23 08:03:32;;;;;;;50.85;19.45;;;;;;;-8.49;100.00;99417.19;5153233;27;20050;-61
2021/12/23 08:05:59;;;;;;;56.33;21.67;;;;;;;-8.26;100.00;99411.78;5153239;27;20137;-63
2021/12/23 08:08:25;;;;;;;48.78;20.13;;;;;;;-8.14;100.00;99395.78;5153064;27;20057;-62
2021/12/23 08:10:52;;;;;;;40.83;16.70;;;;;;;-8.10;100.00;99360.47;5152256;27;20047;-61
2021/12/23 08:13:18;;;;;;;38.15;16.52;;;;;;;-8.01;100.00;99342.28;5153334;27;20483;-66
2021/12/23 08:15:44;;;;;;;45.92;15.30;;;;;;;-7.91;100.00;99331.81;5153132;27;20051;-66
2021/12/23 08:18:11;;;;;;;44.13;15.98;;;;;;;-7.82;100.00;99313.63;5153233;27;20055;-64
2021/12/23 08:20:38;;;;;;;44.17;16.27;;;;;;;-7.80;100.00;99274.25;5152907;27;20068;-64
2021/12/23 08:23:05;;;;;;;44.83;19.58;;;;;;;-7.74;100.00;99262.63;5153157;27;20054;-64
2021/12/23 08:25:31;;;;;;;42.40;18.52;;;;;;;-7.64;100.00;99268.09;5152510;27;20553;-66
2021/12/23 08:27:58;;;;;;;44.90;19.58;;;;;;;-7.61;100.00;99251.66;5152907;27;20066;-64
2021/12/23 08:30:24;;;;;;;41.00;17.02;;;;;;;-7.65;100.00;99239.09;5152730;27;20148;-63
2021/12/23 08:32:52;;;;;;;51.72;19.90;;;;;;;-7.72;100.00;99214.50;5152966;27;20042;-64
2021/12/23 08:35:19;;;;;;;42.58;18.65;;;;;;;-7.57;100.00;99231.47;5152555;27;20056;-66
2021/12/23 08:37:50;;;;;;;43.35;19.60;;;;;;;-7.45;100.00;99230.59;5152805;27;20525;-65
2021/12/23 08:40:20;;;;;;;41.17;17.08;;;;;;;-7.47;100.00;99200.72;5152374;27;20545;-68
2021/12/23 08:42:47;;;;;;;36.33;16.15;;;;;;;-7.54;100.00;99198.22;5152658;27;20058;-68
2021/12/23 08:45:13;;;;;;;31.80;14.38;;;;;;;-7.52;100.00;99174.03;5152988;27;20083;-64
2021/12/23 08:47:40;;;;;;;33.00;15.18;;;;;;;-7.63;100.00;99171.25;5152353;27;20557;-69
2021/12/23 08:50:08;;;;;;;29.83;13.93;;;;;;;-7.70;100.00;99175.91;5152968;27;20086;-65
2021/12/23 08:52:35;;;;;;;32.03;15.80;;;;;;;-7.42;100.00;99179.50;5148378;27;20052;-63
2021/12/23 08:55:05;;;;;;;32.15;14.13;;;;;;;-7.25;100.00;99172.25;5152327;27;20089;-66
2021/12/23 08:57:32;;;;;;;32.10;13.25;;;;;;;-7.16;100.00;99138.78;5152562;27;20134;-70
2021/12/23 08:59:58;;;;;;;32.67;14.25;;;;;;;-7.36;100.00;99085.28;5152526;27;20193;-63
2021/12/23 09:02:25;;;;;;;29.58;12.75;;;;;;;-7.36;100.00;99069.31;5148218;27;20058;-66
2021/12/23 09:04:51;;;;;;;31.02;14.35;;;;;;;-7.36;100.00;99051.47;5152259;27;20050;-65
2021/12/23 09:07:18;;;;;;;32.80;12.18;;;;;;;-7.29;100.00;99048.63;5152884;27;20172;-64
2021/12/23 09:09:46;;;;;;;22.55;12.02;;;;;;;-7.25;100.00;99039.06;5152294;27;20481;-62
2021/12/23 09:12:13;;;;;;;24.65;13.00;;;;;;;-7.45;100.00;99012.22;5152431;27;20093;-66
2021/12/23 09:14:40;;;;;;;22.38;11.40;;;;;;;-7.62;100.00;98999.81;5151225;27;20138;-62
2021/12/23 09:17:06;;;;;;;27.50;11.77;;;;;;;-7.50;100.00;99007.63;5148808;27;20075;-62
2021/12/23 09:19:32;;;;;;;26.63;11.57;;;;;;;-7.46;100.00;99000.78;5152087;27;20107;-66
2021/12/23 09:21:59;;;;;;;20.55;9.93;;;;;;;-7.54;100.00;98989.75;5152260;27;20047;-66
2021/12/23 09:24:26;;;;;;;29.25;11.07;;;;;;;-7.55;100.00;98988.16;5152047;27;20509;-64
2021/12/23 09:26:58;;;;;;;25.48;12.48;;;;;;;-7.74;100.00;98964.53;5151575;27;20069;-64
2021/12/23 09:34:57;;;;;;;34.88;11.85;;;;;;;-7.80;100.00;99000.13;5151818;27;20531;-61
2021/12/23 09:37:24;;;;;;;27.90;12.23;;;;;;;-7.81;100.00;99017.16;5151901;27;20489;-67
2021/12/23 09:39:54;;;;;;;24.33;11.88;;;;;;;-7.74;100.00;99049.69;5152004;27;20046;-68
2021/12/23 09:42:24;;;;;;;35.88;14.63;;;;;;;-7.79;100.00;99072.81;5151550;27;20050;-62
2021/12/23 09:44:56;;;;;;;37.67;15.77;;;;;;;-7.68;100.00;99101.94;5151169;27;20054;-61
2021/12/23 09:47:26;;;;;;;33.65;15.88;;;;;;;-7.62;100.00;99114.28;5147535;27;20057;-60
2021/12/23 09:49:54;;;;;;;29.35;15.10;;;;;;;-7.77;100.00;99113.25;5152055;27;20500;-66
2021/12/23 09:52:21;;;;;;;32.88;15.60;;;;;;;-7.90;100.00;99099.25;5133987;27;20055;-63
2021/12/23 09:54:49;;;;;;;34.00;15.65;;;;;;;-7.81;100.00;99111.09;5151251;27;20050;-61
2021/12/23 09:57:16;;;;;;;33.33;14.75;;;;;;;-7.83;100.00;99121.19;5151652;27;20054;-66
2021/12/23 09:59:43;;;;;;;34.65;14.30;;;;;;;-7.84;100.00;99113.44;5151531;27;20107;-71
2021/12/23 10:02:10;;;;;;;43.20;16.58;;;;;;;-7.72;100.00;99126.66;5151784;27;20050;-66
2021/12/23 10:04:37;;;;;;;36.22;15.98;;;;;;;-7.72;100.00;99139.97;5151592;27;20051;-67
2021/12/23 10:07:04;;;;;;;27.42;13.07;;;;;;;-7.72;100.00;99148.75;5151614;27;20099;-62
2021/12/23 10:09:41;;;;;;;37.13;15.60;;;;;;;-7.77;100.00;99137.22;5151206;27;20056;-72
2021/12/23 10:31:43;;;;;;;35.45;14.27;;;;;;;-7.75;100.00;99085.34;5111562;27;20027;-63
2021/12/23 10:37:14;;;;;;;34.90;14.48;;;;;;;-7.59;100.00;99063.19;5151081;27;19930;-67
2021/12/23 10:39:43;;;;;;;25.60;12.20;;;;;;;-7.42;100.00;99063.13;5151084;27;20058;-63
2021/12/23 10:42:10;;;;;;;27.27;12.15;;;;;;;-7.49;100.00;99037.75;5151145;27;20402;-62
2021/12/23 10:44:37;;;;;;;21.95;10.93;;;;;;;-7.48;100.00;99026.84;5150804;27;20498;-61
2021/12/23 10:47:03;;;;;;;28.75;11.93;;;;;;;-7.38;100.00;99021.63;5150761;27;20465;-61
2021/12/23 10:49:39;;;;;;;31.77;14.82;;;;;;;-7.21;100.00;98984.22;5150660;27;20078;-62
2021/12/23 10:52:10;;;;;;;33.10;12.40;;;;;;;-7.33;100.00;98935.63;5150796;27;20590;-65
2021/12/23 11:00:12;;;;;;;29.77;14.52;;;;;;;-7.37;100.00;98894.59;5150531;27;20133;-63
2021/12/23 11:02:41;;;;;;;30.15;15.45;;;;;;;-7.24;100.00;98904.81;5151138;27;20134;-53
2021/12/23 11:05:13;;;;;;;32.38;14.82;;;;;;;-7.27;100.00;98910.63;5154419;27;20050;-61
2021/12/23 11:07:46;;;;;;;33.30;14.32;;;;;;;-7.27;100.00;98910.63;5154362;27;20073;-67
2021/12/23 11:10:36;;;;;;;39.13;16.83;;;;;;;-7.31;100.00;98898.09;5154367;27;20095;-67
2021/12/23 11:27:36;;;;;;;32.47;14.10;;;;;;;-7.04;100.00;98850.06;5154173;27;20137;-63
2021/12/23 11:36:02;;;;;;;29.17;13.50;;;;;;;-6.82;100.00;98780.63;5153521;27;20424;-64
2021/12/23 11:38:35;;;;;;;35.35;12.60;;;;;;;-6.97;100.00;98739.50;5153510;27;20053;-66
2021/12/23 11:41:07;;;;;;;23.27;11.57;;;;;;;-6.94;100.00;98725.66;5153664;27;20501;-66
2021/12/23 11:43:50;;;;;;;28.40;11.73;;;;;;;-6.96;100.00;98690.50;5153780;27;20050;-65
2021/12/23 11:46:22;;;;;;;29.25;14.00;;;;;;;-6.96;100.00;98689.72;5153365;27;20089;-66
2021/12/23 11:48:53;;;;;;;35.67;15.90;;;;;;;-7.01;100.00;98685.16;5153780;27;20123;-66
2021/12/23 11:51:22;;;;;;;27.00;12.80;;;;;;;-7.16;100.00;98664.59;5153387;27;20137;-66
2021/12/23 11:53:49;;;;;;;30.23;13.65;;;;;;;-7.32;100.00;98651.47;5153271;27;20046;-65
2021/12/23 11:56:18;;;;;;;30.30;13.80;;;;;;;-7.23;100.00;98679.19;5153029;27;20421;-65
2021/12/23 11:58:47;;;;;;;30.77;13.63;;;;;;;-7.35;100.00;98674.91;5153153;27;20056;-65
2021/12/23 12:01:17;;;;;;;28.45;14.05;;;;;;;-7.19;100.00;98699.75;5153162;27;20557;-66
2021/12/23 12:03:53;;;;;;;34.20;14.60;;;;;;;-6.95;100.00;98725.94;5153155;27;20137;-65
2021/12/23 12:06:23;;;;;;;28.48;11.75;;;;;;;-6.95;100.00;98709.97;5153489;27;20061;-65
2021/12/23 12:08:53;;;;;;;27.40;12.68;;;;;;;-6.99;100.00;98693.69;5153200;27;20054;-66
2021/12/23 12:11:21;;;;;;;35.20;14.20;;;;;;;-6.93;100.00;98694.50;5153409;27;20057;-63